Time;durP1;ratioP1;P1;durP2;ratioP2;P2;SDS_P1;SDS_P2;PMS_P1;PMS_P2;Temp;Humidity;BMP_temperature;BMP_pressure;BME280_temperature;BME280_humidity;BME280_pressure;Samples;Min_cycle;Max_cycle;Signal;HPM_P1;HPM_P2
2021/06/26 00:01:05;;;;;;;10.52;5.18;;;;;;;24.37;48.37;99664.63;5088290;28;20396;-61
2021/06/26 00:03:31;;;;;;;6.28;5.03;;;;;;;24.50;48.42;99700.09;5089992;28;20036;-61
2021/06/26 00:05:57;;;;;;;5.53;4.45;;;;;;;24.50;48.70;99702.00;5089196;28;20039;-61
2021/06/26 00:08:26;;;;;;;7.13;5.25;;;;;;;24.41;48.93;99684.16;5090474;28;20399;-61
2021/06/26 00:10:54;;;;;;;9.00;4.70;;;;;;;24.43;49.25;99687.50;5090376;28;20059;-62
2021/06/26 00:13:20;;;;;;;8.05;4.82;;;;;;;24.35;49.33;99677.66;5089541;28;20395;-62
2021/06/26 00:15:47;;;;;;;7.20;5.25;;;;;;;24.36;49.51;99704.81;5089201;28;20044;-60
2021/06/26 00:18:13;;;;;;;8.35;4.97;;;;;;;24.03;49.75;99642.91;5090567;28;20462;-60
2021/06/26 00:20:39;;;;;;;8.48;4.93;;;;;;;24.32;49.56;99702.72;5090599;28;20036;-61
2021/06/26 00:23:04;;;;;;;7.43;5.20;;;;;;;24.26;49.83;99685.28;5089878;28;20036;-61
2021/06/26 00:25:30;;;;;;;7.38;5.40;;;;;;;24.28;49.74;99698.72;5089866;28;20048;-61
2021/06/26 00:27:56;;;;;;;8.02;5.03;;;;;;;23.94;50.11;99655.94;5090680;28;20028;-61
2021/06/26 00:30:23;;;;;;;6.25;5.00;;;;;;;24.25;50.17;99710.13;5091015;28;20028;-62
2021/06/26 00:32:49;;;;;;;9.02;5.22;;;;;;;24.23;50.16;99697.50;5090756;28;20363;-62
2021/06/26 00:35:15;;;;;;;6.40;4.88;;;;;;;24.26;50.40;99700.84;5090562;28;20039;-61
2021/06/26 00:37:42;;;;;;;11.35;5.28;;;;;;;23.90;50.44;99634.69;5090130;28;20058;-61
2021/06/26 00:40:09;;;;;;;9.15;5.80;;;;;;;24.26;50.61;99679.81;5089725;28;20118;-62
2021/06/26 00:42:37;;;;;;;6.57;5.10;;;;;;;24.27;50.54;99680.66;5090442;28;20356;-61
2021/06/26 00:45:08;;;;;;;8.25;5.05;;;;;;;24.26;51.22;99689.91;5090007;28;20093;-61
2021/06/26 00:47:33;;;;;;;7.38;5.40;;;;;;;24.23;50.94;99675.63;5090035;28;20040;-61
2021/06/26 00:49:59;;;;;;;9.52;5.63;;;;;;;24.19;50.98;99673.53;5089355;28;20032;-62
2021/06/26 00:52:24;;;;;;;7.45;5.68;;;;;;;24.16;51.19;99663.88;5090535;28;20032;-63
2021/06/26 00:54:50;;;;;;;13.18;5.18;;;;;;;24.19;51.36;99668.91;5089578;28;20456;-62
2021/06/26 00:57:17;;;;;;;10.00;5.95;;;;;;;24.12;51.52;99642.63;5090065;28;20423;-62
2021/06/26 00:59:43;;;;;;;10.45;6.03;;;;;;;24.17;51.48;99657.34;5090652;28;20028;-62
2021/06/26 01:02:10;;;;;;;7.57;5.43;;;;;;;24.18;51.35;99653.56;5093278;28;20616;-62
2021/06/26 01:04:36;;;;;;;11.27;5.22;;;;;;;24.21;51.05;99658.56;5093471;28;20043;-61
2021/06/26 01:07:01;;;;;;;8.75;5.60;;;;;;;24.14;51.45;99638.63;5093502;28;20383;-61
2021/06/26 01:09:27;;;;;;;8.55;5.55;;;;;;;24.29;51.24;99664.84;5093372;28;20027;-62
2021/06/26 01:11:57;;;;;;;13.45;6.13;;;;;;;24.17;51.35;99643.66;5093114;28;20039;-62
2021/06/26 01:14:30;;;;;;;9.77;6.15;;;;;;;24.33;51.23;99660.59;5094090;28;20151;-60
2021/06/26 01:16:56;;;;;;;9.68;5.70;;;;;;;24.41;51.23;99663.13;5091897;28;20130;-61
2021/06/26 01:19:22;;;;;;;8.60;6.05;;;;;;;24.36;50.95;99658.28;5091314;28;20069;-62
2021/06/26 01:21:53;;;;;;;12.40;5.80;;;;;;;24.53;51.32;99666.00;5092180;28;20131;-62
2021/06/26 01:24:18;;;;;;;10.35;5.68;;;;;;;24.54;51.01;99667.66;5094500;28;20114;-61
2021/06/26 01:26:44;;;;;;;10.13;5.88;;;;;;;24.55;50.85;99655.66;5092821;28;20032;-61
2021/06/26 01:29:10;;;;;;;10.73;5.72;;;;;;;24.66;50.59;99667.81;5093579;28;20050;-61
2021/06/26 01:31:36;;;;;;;8.00;5.60;;;;;;;24.65;50.54;99649.69;5092766;28;20043;-61
2021/06/26 01:34:02;;;;;;;7.80;5.70;;;;;;;24.77;50.26;99658.91;5093941;28;20032;-61
2021/06/26 01:36:27;;;;;;;6.38;5.55;;;;;;;24.82;50.08;99654.66;5093529;28;20036;-61
2021/06/26 01:38:58;;;;;;;7.57;5.45;;;;;;;24.16;49.84;99540.78;5092882;28;20031;-61
2021/06/26 01:41:28;;;;;;;9.00;5.07;;;;;;;24.97;49.85;99663.38;5092664;28;20381;-61
2021/06/26 01:43:53;;;;;;;8.50;4.68;;;;;;;24.89;49.47;99623.41;5094377;28;20200;-62
2021/06/26 01:46:19;;;;;;;7.35;5.18;;;;;;;25.10;49.12;99650.66;5092656;28;20495;-61
2021/06/26 01:48:45;;;;;;;7.97;5.55;;;;;;;25.18;48.79;99644.88;5091632;28;20085;-62
2021/06/26 01:51:10;;;;;;;6.80;5.30;;;;;;;25.28;48.95;99647.13;5093012;28;20032;-61
2021/06/26 01:53:36;;;;;;;8.48;5.60;;;;;;;25.31;48.57;99636.53;5093177;28;20043;-61
2021/06/26 01:56:01;;;;;;;6.38;5.18;;;;;;;25.45;48.08;99628.19;5093803;28;20032;-61
2021/06/26 01:58:27;;;;;;;9.98;5.43;;;;;;;25.57;48.26;99642.84;5091996;28;20096;-62
2021/06/26 02:00:52;;;;;;;6.32;5.30;;;;;;;25.63;47.88;99622.75;5092873;28;20445;-62
2021/06/26 02:03:18;;;;;;;8.23;5.47;;;;;;;25.76;47.77;99626.38;5093349;28;20185;-62
2021/06/26 02:05:43;;;;;;;9.38;6.13;;;;;;;25.83;47.46;99635.38;5093541;28;20032;-62
2021/06/26 02:08:09;;;;;;;8.77;5.28;;;;;;;25.92;47.42;99627.66;5092186;28;20039;-61
2021/06/26 02:10:35;;;;;;;10.35;5.47;;;;;;;26.04;47.18;99633.19;5092433;28;20036;-62
2021/06/26 02:13:01;;;;;;;10.13;5.18;;;;;;;26.23;47.17;99628.56;5092409;28;20130;-61
2021/06/26 02:15:27;;;;;;;8.82;5.43;;;;;;;26.40;46.92;99615.03;5092807;28;20131;-61
2021/06/26 02:17:53;;;;;;;7.53;5.53;;;;;;;26.63;46.19;99632.63;5092236;28;20205;-60
2021/06/26 02:20:18;;;;;;;9.30;5.85;;;;;;;26.78;45.80;99629.44;5091606;28;20505;-62
2021/06/26 02:22:45;;;;;;;6.63;5.32;;;;;;;26.88;45.67;99632.44;5092933;28;20028;-62
2021/06/26 02:25:13;;;;;;;7.70;5.57;;;;;;;26.56;45.37;99566.00;5091072;28;20040;-61
2021/06/26 02:27:38;;;;;;;9.10;5.63;;;;;;;26.60;45.73;99567.22;5092559;28;20032;-62
2021/06/26 02:30:06;;;;;;;9.32;5.93;;;;;;;27.00;45.14;99626.16;5091147;28;20105;-61
2021/06/26 02:32:32;;;;;;;9.00;6.40;;;;;;;27.00;45.45;99617.91;5092668;28;20036;-61
2021/06/26 02:34:57;;;;;;;11.20;6.43;;;;;;;26.95;45.35;99618.63;5092033;28;20044;-61
2021/06/26 02:37:23;;;;;;;7.10;5.70;;;;;;;26.99;45.38;99627.22;5091560;28;20028;-62
2021/06/26 02:39:49;;;;;;;9.15;6.28;;;;;;;27.02;45.53;99632.25;5092231;28;20356;-60
2021/06/26 02:42:14;;;;;;;7.28;5.88;;;;;;;26.92;45.24;99616.34;5092491;28;20372;-61
2021/06/26 02:44:40;;;;;;;10.00;6.00;;;;;;;27.00;45.06;99612.41;5090712;28;20031;-61
2021/06/26 02:47:05;;;;;;;11.63;5.97;;;;;;;26.96;44.92;99602.97;5092471;28;20444;-60
2021/06/26 02:49:31;;;;;;;8.73;5.80;;;;;;;27.31;44.37;99629.63;5092105;28;20036;-61
2021/06/26 02:51:56;;;;;;;11.27;6.03;;;;;;;27.35;43.99;99609.66;5092295;28;20024;-62
2021/06/26 02:54:22;;;;;;;9.75;5.63;;;;;;;27.62;43.80;99633.09;5091523;28;20044;-62
2021/06/26 02:56:47;;;;;;;7.13;5.93;;;;;;;27.82;43.25;99629.09;5091317;28;20111;-61
2021/06/26 02:59:13;;;;;;;8.27;6.30;;;;;;;28.20;42.48;99635.94;5092361;28;20119;-61
2021/06/26 03:01:38;;;;;;;10.27;5.72;;;;;;;28.57;41.45;99615.41;5090814;28;20041;-60
2021/06/26 03:04:04;;;;;;;12.48;5.97;;;;;;;29.24;40.48;99633.06;5091254;28;20032;-60
2021/06/26 03:06:30;;;;;;;9.02;5.53;;;;;;;29.67;39.15;99621.56;5090891;28;20032;-61
2021/06/26 03:08:56;;;;;;;12.07;5.97;;;;;;;29.96;38.85;99626.88;5091945;28;20039;-62
2021/06/26 03:11:22;;;;;;;13.35;5.57;;;;;;;30.27;38.19;99618.94;5091645;28;20035;-61
2021/06/26 03:13:47;;;;;;;11.13;5.50;;;;;;;30.59;37.60;99623.66;5091133;28;20197;-61
2021/06/26 03:16:13;;;;;;;10.82;5.82;;;;;;;30.93;36.85;99620.69;5090976;28;20554;-61
2021/06/26 03:18:43;;;;;;;7.60;5.72;;;;;;;31.23;36.35;99633.09;5092281;28;20032;-61
2021/06/26 03:21:09;;;;;;;12.15;5.65;;;;;;;31.70;35.47;99625.88;5096681;28;20036;-60
2021/06/26 03:23:34;;;;;;;10.55;5.70;;;;;;;32.07;34.56;99619.41;5090978;28;20034;-63
2021/06/26 03:26:00;;;;;;;12.27;6.00;;;;;;;32.57;33.32;99607.88;5091320;28;20043;-61
2021/06/26 03:28:25;;;;;;;10.32;5.68;;;;;;;32.92;32.58;99597.09;5090766;28;20034;-61
2021/06/26 03:30:50;;;;;;;15.85;6.28;;;;;;;33.33;31.98;99598.94;5091893;28;20541;-60
2021/06/26 03:33:16;;;;;;;14.25;5.93;;;;;;;33.76;31.32;99609.66;5090895;28;20320;-59
2021/06/26 03:35:42;;;;;;;8.95;5.40;;;;;;;34.12;30.93;99603.09;5090703;28;20081;-61
2021/06/26 03:38:07;;;;;;;12.10;5.25;;;;;;;34.55;29.97;99599.81;5091000;28;20032;-60
2021/06/26 03:40:33;;;;;;;12.00;5.93;;;;;;;34.99;29.53;99610.00;5092062;28;20040;-60
2021/06/26 03:42:58;;;;;;;10.55;4.95;;;;;;;35.25;29.39;99606.13;5090108;28;20032;-62
2021/06/26 03:45:24;;;;;;;12.00;5.50;;;;;;;35.44;28.82;99620.94;5090167;28;20541;-61
2021/06/26 03:47:49;;;;;;;12.00;6.00;;;;;;;35.40;28.77;99617.09;5090624;28;20083;-60
2021/06/26 03:50:15;;;;;;;6.70;4.90;;;;;;;34.97;28.53;99617.81;5091777;28;20057;-60
2021/06/26 03:52:40;;;;;;;9.80;5.38;;;;;;;34.77;28.77;99614.06;5088779;28;20040;-60
2021/06/26 03:55:06;;;;;;;10.55;5.22;;;;;;;34.63;29.07;99615.84;5090268;28;20082;-60
2021/06/26 03:57:32;;;;;;;13.63;5.68;;;;;;;34.77;29.37;99618.78;5090630;28;20403;-59
2021/06/26 03:59:57;;;;;;;7.38;4.78;;;;;;;34.82;28.48;99570.66;5090690;28;20036;-60
2021/06/26 04:02:23;;;;;;;10.27;5.10;;;;;;;35.45;27.97;99599.50;5090896;28;20054;-59
2021/06/26 04:04:48;;;;;;;10.73;4.75;;;;;;;35.67;27.62;99612.06;5090260;28;20039;-60
2021/06/26 04:07:14;;;;;;;10.82;5.15;;;;;;;35.69;27.16;99618.16;5090907;28;20158;-61
2021/06/26 04:09:40;;;;;;;8.63;4.85;;;;;;;35.71;26.84;99608.41;5090129;28;20463;-60
2021/06/26 04:12:06;;;;;;;7.25;5.00;;;;;;;35.90;26.35;99627.91;5090995;28;20038;-60
2021/06/26 04:14:31;;;;;;;8.82;5.45;;;;;;;36.22;26.03;99616.41;5089760;28;20439;-62
2021/06/26 04:16:56;;;;;;;9.70;4.53;;;;;;;36.71;25.84;99628.19;5090731;28;20040;-61
2021/06/26 04:19:22;;;;;;;11.57;5.07;;;;;;;37.12;25.16;99629.47;5090556;28;20104;-62
2021/06/26 04:21:48;;;;;;;14.05;5.25;;;;;;;37.46;24.66;99611.53;5090767;28;20383;-62
2021/06/26 04:24:14;;;;;;;14.38;5.57;;;;;;;37.87;23.78;99624.69;5089982;28;20605;-62
2021/06/26 04:26:39;;;;;;;8.25;5.10;;;;;;;38.39;23.21;99636.66;5090602;28;20110;-62
2021/06/26 04:29:05;;;;;;;7.10;5.35;;;;;;;38.84;23.10;99633.91;5092068;28;20146;-63
2021/06/26 04:31:30;;;;;;;7.43;4.70;;;;;;;39.10;22.12;99626.88;5109497;28;20035;-62
2021/06/26 04:33:56;;;;;;;8.43;5.22;;;;;;;39.49;21.50;99636.44;5108967;28;20043;-63
2021/06/26 04:36:21;;;;;;;11.82;4.70;;;;;;;39.86;21.44;99634.28;5087728;28;20055;-62
2021/06/26 04:38:47;;;;;;;9.07;5.22;;;;;;;40.17;20.70;99638.94;5089105;28;20085;-62
2021/06/26 04:41:12;;;;;;;11.05;4.80;;;;;;;40.60;20.30;99633.69;5090475;28;20043;-62
2021/06/26 04:43:38;;;;;;;8.02;5.18;;;;;;;41.14;20.02;99647.31;5089696;28;20447;-61
2021/06/26 04:46:08;;;;;;;8.85;4.82;;;;;;;41.89;18.50;99636.78;5089875;28;20111;-63
2021/06/26 04:48:35;;;;;;;7.38;4.88;;;;;;;42.42;18.07;99640.00;5089611;28;20032;-63
2021/06/26 04:51:00;;;;;;;6.93;4.90;;;;;;;42.73;17.93;99647.22;5091205;28;20073;-64
2021/06/26 04:53:26;;;;;;;9.05;5.03;;;;;;;43.34;17.44;99633.69;5089558;28;20032;-63
2021/06/26 04:55:51;;;;;;;9.88;5.45;;;;;;;44.08;16.40;99632.81;5089745;28;20678;-63
2021/06/26 04:58:27;;;;;;;8.90;5.10;;;;;;;44.87;15.43;99650.44;5089527;28;20085;-62
2021/06/26 05:00:54;;;;;;;10.93;5.15;;;;;;;44.73;15.57;99637.56;5090830;28;20077;-63
2021/06/26 05:03:21;;;;;;;10.52;5.22;;;;;;;44.36;15.52;99646.16;5088463;28;20040;-62
2021/06/26 05:05:48;;;;;;;11.38;5.28;;;;;;;44.83;15.75;99635.38;5089817;28;20028;-63
2021/06/26 05:08:14;;;;;;;11.55;5.20;;;;;;;45.67;14.60;99646.84;5089517;28;20531;-63
2021/06/26 05:10:40;;;;;;;9.63;5.32;;;;;;;46.20;14.23;99649.34;5089143;28;20114;-63
2021/06/26 05:13:05;;;;;;;13.43;5.18;;;;;;;46.77;13.35;99633.88;5107432;28;20040;-63
2021/06/26 05:15:31;;;;;;;5.80;4.72;;;;;;;47.66;12.69;99627.38;5109817;28;20409;-63
2021/06/26 05:17:57;;;;;;;8.18;4.72;;;;;;;48.42;12.03;99637.78;5109565;28;20051;-63
2021/06/26 05:20:22;;;;;;;8.70;4.70;;;;;;;49.19;11.70;99636.56;5108385;28;20063;-63
2021/06/26 05:22:48;;;;;;;7.85;4.20;;;;;;;49.86;10.51;99625.28;5107766;28;20168;-64
2021/06/26 05:25:13;;;;;;;6.40;3.85;;;;;;;50.59;9.91;99643.53;5109644;28;20032;-63
2021/06/26 05:27:39;;;;;;;7.75;4.32;;;;;;;51.16;9.40;99633.50;5110194;28;20089;-64
2021/06/26 05:30:05;;;;;;;5.88;3.83;;;;;;;51.30;9.20;99606.19;5109619;28;20035;-63
2021/06/26 05:32:31;;;;;;;5.45;3.75;;;;;;;51.57;9.04;99637.13;5107920;28;20088;-63
2021/06/26 05:34:57;;;;;;;6.60;3.97;;;;;;;51.69;9.10;99628.97;5110019;28;20504;-63
2021/06/26 05:37:22;;;;;;;9.15;4.25;;;;;;;51.69;9.02;99619.63;5109961;28;20444;-63
2021/06/26 05:39:48;;;;;;;7.47;3.90;;;;;;;51.40;9.12;99622.50;5109465;28;20032;-63
2021/06/26 05:42:13;;;;;;;6.45;4.10;;;;;;;51.47;9.37;99604.53;5109704;28;20031;-63
2021/06/26 05:44:39;;;;;;;6.28;4.97;;;;;;;51.65;9.09;99615.97;5108486;28;20479;-62
2021/06/26 05:47:04;;;;;;;6.70;4.20;;;;;;;52.07;8.78;99611.34;5112262;28;20476;-63
2021/06/26 05:49:30;;;;;;;5.68;3.83;;;;;;;52.70;8.03;99617.59;5113180;28;20406;-62
2021/06/26 05:51:55;;;;;;;5.18;3.97;;;;;;;53.01;8.14;99606.31;5113630;28;20406;-62
2021/06/26 05:54:21;;;;;;;6.05;3.97;;;;;;;53.52;7.42;99612.44;5111894;28;20047;-62
2021/06/26 05:56:47;;;;;;;6.22;4.20;;;;;;;54.21;7.35;99597.34;5112509;28;20491;-63
2021/06/26 05:59:12;;;;;;;6.43;4.55;;;;;;;54.52;7.18;99605.94;5112716;28;20035;-64
2021/06/26 06:01:38;;;;;;;6.57;4.50;;;;;;;55.03;6.79;99602.31;5113484;28;20042;-63
2021/06/26 06:04:07;;;;;;;9.35;4.90;;;;;;;55.39;6.52;99613.16;5111784;28;20035;-63
2021/06/26 06:06:33;;;;;;;5.22;4.72;;;;;;;55.70;6.29;99607.25;5113413;28;20041;-62
2021/06/26 06:08:58;;;;;;;9.85;5.38;;;;;;;56.05;5.81;99595.47;5112912;28;20122;-61
2021/06/26 06:11:24;;;;;;;9.10;5.30;;;;;;;56.14;5.84;99597.75;5113244;27;20027;-62
2021/06/26 06:13:49;;;;;;;6.70;5.00;;;;;;;56.29;5.65;99592.50;5112729;28;20058;-63
2021/06/26 06:16:15;;;;;;;7.10;5.85;;;;;;;56.31;5.74;99593.69;5108199;28;20219;-63
2021/06/26 06:18:40;;;;;;;10.80;5.70;;;;;;;56.51;5.99;99595.72;5091945;28;20036;-63
2021/06/26 06:21:06;;;;;;;10.63;6.68;;;;;;;56.75;5.81;99601.31;5092904;28;20044;-63
2021/06/26 06:23:31;;;;;;;7.07;6.30;;;;;;;57.09;5.94;99608.69;5092846;28;20127;-62
2021/06/26 06:25:57;;;;;;;8.75;6.20;;;;;;;57.47;5.64;99607.28;5093352;28;20023;-64
2021/06/26 06:28:22;;;;;;;6.57;5.60;;;;;;;57.99;5.25;99590.22;5091878;28;20036;-63
2021/06/26 06:30:48;;;;;;;8.27;6.03;;;;;;;58.71;4.58;99618.88;5091940;28;20031;-62
2021/06/26 06:33:14;;;;;;;7.40;6.70;;;;;;;59.03;4.23;99582.38;5092856;28;20114;-64
2021/06/26 06:35:39;;;;;;;9.35;6.72;;;;;;;59.66;4.65;99613.56;5096760;28;20058;-64
2021/06/26 06:38:05;;;;;;;10.90;8.07;;;;;;;59.86;4.99;99613.25;5111245;28;20179;-66
2021/06/26 06:40:30;;;;;;;9.82;8.20;;;;;;;59.32;5.38;99605.28;5106374;28;20079;-63
2021/06/26 06:42:56;;;;;;;9.43;8.43;;;;;;;58.54;5.79;99598.81;5095967;28;20075;-63
2021/06/26 06:45:22;;;;;;;8.68;7.25;;;;;;;58.87;5.53;99612.19;5100492;28;20151;-65
2021/06/26 06:47:48;;;;;;;11.43;8.10;;;;;;;59.32;5.12;99616.00;5101024;28;20616;-65
2021/06/26 06:50:14;;;;;;;9.75;7.93;;;;;;;60.09;4.55;99616.94;5103008;28;20035;-65
2021/06/26 06:52:40;;;;;;;11.98;8.85;;;;;;;60.80;4.50;99618.22;5102850;28;20047;-66
2021/06/26 06:55:06;;;;;;;11.93;9.30;;;;;;;61.27;4.53;99618.34;5100642;28;20430;-63
2021/06/26 06:57:32;;;;;;;12.45;9.55;;;;;;;61.51;3.60;99614.78;5099619;28;20035;-65
2021/06/26 06:59:57;;;;;;;12.20;10.95;;;;;;;61.57;4.52;99610.78;5101470;28;20027;-65
2021/06/26 07:02:23;;;;;;;11.23;10.33;;;;;;;61.70;4.29;99616.38;5100575;28;20466;-65
2021/06/26 07:04:49;;;;;;;11.40;10.38;;;;;;;61.91;4.04;99613.78;5108018;28;20637;-65
2021/06/26 07:07:15;;;;;;;12.13;10.98;;;;;;;61.97;3.23;99582.84;5102980;28;20024;-66
2021/06/26 07:09:41;;;;;;;13.23;12.02;;;;;;;62.34;3.79;99598.53;5101024;28;20059;-66
2021/06/26 07:12:08;;;;;;;14.20;11.95;;;;;;;62.46;3.61;99599.63;5105569;28;20544;-65
2021/06/26 07:14:33;;;;;;;13.27;11.88;;;;;;;62.37;3.10;99601.25;5110349;28;20059;-66
2021/06/26 07:16:59;;;;;;;13.75;12.60;;;;;;;62.34;3.43;99610.13;5112012;27;20051;-66
2021/06/26 07:19:25;;;;;;;12.82;11.73;;;;;;;62.13;3.45;99598.28;5092298;28;20036;-66
2021/06/26 07:21:50;;;;;;;13.00;11.68;;;;;;;62.01;3.57;99591.38;5091439;28;20040;-66
2021/06/26 07:24:16;;;;;;;12.00;11.07;;;;;;;61.98;3.26;99561.28;5090045;28;20467;-65
2021/06/26 07:26:41;;;;;;;12.27;11.48;;;;;;;62.35;3.59;99588.53;5090516;28;20040;-65
2021/06/26 07:29:07;;;;;;;13.18;12.18;;;;;;;62.65;3.49;99600.31;5092236;28;20079;-65
2021/06/26 07:31:34;;;;;;;13.27;11.98;;;;;;;62.56;3.60;99607.78;5091066;28;20059;-65
2021/06/26 07:33:59;;;;;;;14.57;13.30;;;;;;;62.84;2.90;99607.63;5090154;28;20119;-65
2021/06/26 07:36:25;;;;;;;14.57;13.27;;;;;;;63.02;2.69;99600.13;5091031;28;20114;-65
2021/06/26 07:38:50;;;;;;;14.80;13.63;;;;;;;63.20;2.26;99607.06;5092151;28;20554;-65
2021/06/26 07:41:16;;;;;;;13.52;12.57;;;;;;;63.50;1.88;99618.75;5097320;28;20036;-64
2021/06/26 07:43:42;;;;;;;16.25;15.15;;;;;;;63.52;2.38;99614.03;5097133;28;20028;-65
2021/06/26 07:46:07;;;;;;;16.15;15.05;;;;;;;63.70;2.25;99613.09;5098564;28;20524;-64
2021/06/26 07:48:33;;;;;;;16.40;15.13;;;;;;;63.86;1.70;99608.09;5098819;28;20024;-65
2021/06/26 07:50:59;;;;;;;15.10;13.93;;;;;;;63.77;1.88;99570.41;5099563;28;20036;-65
2021/06/26 07:53:25;;;;;;;18.20;16.90;;;;;;;63.99;1.42;99602.78;5098395;28;20612;-65
2021/06/26 07:55:53;;;;;;;17.35;16.00;;;;;;;63.67;1.44;99575.53;5100006;28;20047;-66
2021/06/26 07:58:26;;;;;;;17.45;16.02;;;;;;;63.77;1.60;99611.09;5099379;28;20047;-65
2021/06/26 08:00:53;;;;;;;17.63;16.38;;;;;;;63.64;1.62;99617.19;5098854;28;20032;-64
2021/06/26 08:03:20;;;;;;;19.88;18.48;;;;;;;63.33;1.58;99601.81;5098894;28;20027;-65
2021/06/26 08:05:46;;;;;;;16.10;14.98;;;;;;;62.53;1.81;99593.44;5095009;28;20047;-66
2021/06/26 08:08:12;;;;;;;16.42;15.05;;;;;;;61.00;2.45;99591.75;5090259;28;20036;-66
2021/06/26 08:10:39;;;;;;;14.45;13.45;;;;;;;59.79;3.21;99561.53;5095529;28;20097;-67
2021/06/26 08:13:05;;;;;;;12.38;11.48;;;;;;;59.54;3.46;99575.63;5108911;28;20500;-64
2021/06/26 08:15:31;;;;;;;14.23;9.57;;;;;;;59.22;3.12;99582.56;5110764;28;20067;-66
2021/06/26 08:17:57;;;;;;;9.48;8.77;;;;;;;58.62;3.34;99559.84;5109652;28;20044;-64
2021/06/26 08:20:23;;;;;;;8.80;8.18;;;;;;;57.66;3.77;99519.19;5110490;28;20038;-65
2021/06/26 08:22:49;;;;;;;8.10;7.45;;;;;;;57.04;4.39;99560.34;5090439;28;20044;-62
2021/06/26 08:25:14;;;;;;;6.93;6.32;;;;;;;55.56;5.01;99558.75;5088403;28;20042;-62
2021/06/26 08:27:40;;;;;;;8.43;5.80;;;;;;;53.39;6.50;99570.06;5090580;28;20126;-61
2021/06/26 08:30:06;;;;;;;6.00;5.40;;;;;;;51.07;7.94;99564.66;5090153;28;20415;-61
2021/06/26 08:32:32;;;;;;;6.30;4.63;;;;;;;48.54;9.41;99536.50;5090327;28;20051;-62
2021/06/26 08:34:58;;;;;;;5.18;4.03;;;;;;;46.40;10.75;99516.28;5089398;28;20032;-64
2021/06/26 08:37:23;;;;;;;8.38;4.18;;;;;;;44.97;11.49;99562.38;5095131;28;20055;-64
2021/06/26 08:39:49;;;;;;;4.82;3.88;;;;;;;43.37;13.16;99537.19;5097630;28;20036;-62
2021/06/26 08:42:15;;;;;;;8.20;4.65;;;;;;;42.46;14.16;99559.44;5097253;28;20035;-64
2021/06/26 08:44:42;;;;;;;7.97;4.32;;;;;;;41.52;15.24;99569.00;5092487;28;20187;-63
2021/06/26 08:47:08;;;;;;;8.18;4.78;;;;;;;40.75;16.40;99546.19;5089476;28;20120;-63
2021/06/26 08:49:33;;;;;;;8.32;5.15;;;;;;;40.33;17.45;99557.16;5089491;28;20039;-64
2021/06/26 08:51:59;;;;;;;10.27;4.88;;;;;;;39.92;18.10;99569.66;5089226;28;20118;-64
2021/06/26 08:54:24;;;;;;;8.10;4.75;;;;;;;39.26;18.11;99515.28;5108633;28;20382;-64
2021/06/26 08:56:50;;;;;;;5.25;4.60;;;;;;;39.18;18.73;99565.28;5109806;28;20028;-61
2021/06/26 08:59:17;;;;;;;7.18;4.38;;;;;;;38.77;19.44;99550.44;5100798;28;20039;-63
2021/06/26 09:01:43;;;;;;;7.00;4.47;;;;;;;38.24;19.84;99517.66;5093600;28;20101;-64
2021/06/26 09:04:14;;;;;;;6.80;4.93;;;;;;;38.20;19.71;99551.00;5099394;28;20039;-64
2021/06/26 09:06:56;;;;;;;4.40;4.00;;;;;;;38.15;20.38;99563.16;5101428;28;20036;-66
2021/06/26 09:09:29;;;;;;;5.25;4.50;;;;;;;37.96;20.31;99570.84;5100612;28;20032;-66
2021/06/26 09:12:00;;;;;;;5.05;3.80;;;;;;;37.80;19.66;99554.41;5097962;28;20027;-64
2021/06/26 09:14:26;;;;;;;7.70;4.55;;;;;;;37.60;19.74;99545.34;5095059;28;20134;-66
2021/06/26 09:16:53;;;;;;;7.78;4.20;;;;;;;37.53;20.59;99544.94;5099564;28;20123;-65
2021/06/26 09:19:20;;;;;;;6.57;3.92;;;;;;;37.55;20.60;99545.47;5097781;28;20050;-63
2021/06/26 09:22:12;;;;;;;5.15;4.40;;;;;;;37.57;19.76;99553.53;5102664;28;20042;-65
2021/06/26 09:24:42;;;;;;;6.03;4.00;;;;;;;37.39;20.60;99555.28;5100743;28;20040;-64
2021/06/26 09:27:11;;;;;;;4.90;4.32;;;;;;;37.20;20.44;99545.84;5104319;28;20039;-64
2021/06/26 09:29:47;;;;;;;6.18;4.20;;;;;;;37.04;20.46;99533.38;5095868;28;20067;-64
2021/06/26 09:32:20;;;;;;;5.40;4.30;;;;;;;36.85;20.92;99538.97;5093467;28;20063;-65
2021/06/26 09:34:45;;;;;;;8.02;4.35;;;;;;;36.64;20.87;99522.63;5097492;28;20517;-67
2021/06/26 09:37:13;;;;;;;7.32;4.03;;;;;;;36.69;21.18;99541.22;5104897;28;20115;-66
2021/06/26 09:39:41;;;;;;;6.93;4.38;;;;;;;36.77;21.12;99537.72;5102790;28;20084;-62
2021/06/26 09:42:22;;;;;;;9.32;4.95;;;;;;;36.92;20.94;99536.63;5101587;28;20020;-62
2021/06/26 09:45:05;;;;;;;6.80;4.13;;;;;;;36.99;20.94;99534.25;5101306;28;20056;-63
2021/06/26 09:47:38;;;;;;;9.93;4.03;;;;;;;37.01;21.08;99525.59;5100646;28;20040;-61
2021/06/26 09:50:29;;;;;;;8.05;4.40;;;;;;;36.96;20.50;99517.28;5101630;28;20069;-62
2021/06/26 09:53:08;;;;;;;8.48;4.72;;;;;;;36.78;20.75;99517.91;5113037;28;20032;-63
2021/06/26 09:55:35;;;;;;;5.88;3.92;;;;;;;36.65;20.74;99499.16;5099667;28;20495;-61
2021/06/26 09:58:08;;;;;;;5.25;4.07;;;;;;;36.83;21.23;99524.50;5111126;28;20031;-61
2021/06/26 10:00:34;;;;;;;8.73;4.40;;;;;;;36.76;20.92;99519.34;5110630;28;20118;-64
2021/06/26 10:02:59;;;;;;;6.18;4.50;;;;;;;36.64;21.13;99508.66;5112890;28;20118;-63
2021/06/26 10:05:25;;;;;;;4.95;4.18;;;;;;;36.55;20.82;99502.16;5102275;28;20028;-63
2021/06/26 10:07:53;;;;;;;8.32;4.20;;;;;;;36.45;21.26;99497.56;5094714;28;20036;-61
2021/06/26 10:10:22;;;;;;;6.53;4.57;;;;;;;36.58;21.51;99509.91;5101996;28;20039;-61
2021/06/26 10:12:51;;;;;;;5.97;4.50;;;;;;;36.26;21.30;99450.25;5106413;28;20028;-62
2021/06/26 10:15:18;;;;;;;8.40;4.28;;;;;;;36.65;21.16;99507.53;5101273;28;20503;-76
2021/06/26 10:17:44;;;;;;;7.10;4.22;;;;;;;36.63;21.62;99493.06;5091171;28;20506;-61
2021/06/26 10:20:13;;;;;;;6.90;4.63;;;;;;;36.56;21.45;99481.50;5097521;28;20444;-61
2021/06/26 10:22:41;;;;;;;7.05;4.70;;;;;;;36.80;21.39;99500.03;5097250;28;20122;-64
2021/06/26 10:25:09;;;;;;;5.68;4.60;;;;;;;36.78;21.48;99495.59;5099426;28;20035;-59
2021/06/26 10:27:35;;;;;;;7.43;5.07;;;;;;;36.83;21.20;99502.19;5104041;28;20035;-62
2021/06/26 10:30:19;;;;;;;6.97;4.82;;;;;;;36.92;20.80;99500.38;5096133;28;20024;-63
2021/06/26 10:32:55;;;;;;;9.95;4.85;;;;;;;36.91;21.00;99507.09;5095471;28;20039;-60
2021/06/26 10:35:22;;;;;;;10.48;5.20;;;;;;;36.80;20.79;99481.34;5100086;28;20116;-62
2021/06/26 10:38:06;;;;;;;8.30;5.03;;;;;;;36.77;21.08;99487.53;5092214;28;20059;-62
2021/06/26 10:40:51;;;;;;;8.50;4.97;;;;;;;36.77;20.89;99493.09;5109447;28;20034;-61
2021/06/26 10:43:30;;;;;;;6.80;4.93;;;;;;;36.64;20.80;99478.00;5101381;28;20399;-72
2021/06/26 10:46:10;;;;;;;7.47;4.88;;;;;;;36.63;20.89;99487.50;5100659;28;20059;-62
2021/06/26 10:49:14;;;;;;;5.68;4.13;;;;;;;36.61;20.24;99490.63;5104605;28;20077;-62
2021/06/26 10:51:42;;;;;;;7.25;4.95;;;;;;;36.09;20.65;99420.97;5085984;28;20040;-68
2021/06/26 10:54:16;;;;;;;8.57;4.88;;;;;;;36.11;20.93;99420.69;5098307;28;20078;-62
2021/06/26 10:56:44;;;;;;;6.72;4.88;;;;;;;36.44;20.90;99484.75;5097011;28;20036;-62
2021/06/26 10:59:18;;;;;;;7.05;4.20;;;;;;;36.53;20.86;99496.06;5102065;28;20526;-63
2021/06/26 11:01:58;;;;;;;5.63;4.20;;;;;;;36.62;19.99;99492.28;5098885;28;20096;-63
2021/06/26 11:04:25;;;;;;;5.22;3.47;;;;;;;36.48;19.98;99486.63;5104387;28;20031;-67
2021/06/26 11:07:03;;;;;;;6.50;3.70;;;;;;;36.49;19.93;99482.72;5093211;28;20185;-63
2021/06/26 11:10:06;;;;;;;4.88;4.05;;;;;;;36.55;19.90;99471.50;5108583;28;20071;-62
2021/06/26 11:12:37;;;;;;;5.32;3.90;;;;;;;36.46;19.83;99468.53;5105370;28;20043;-63
2021/06/26 11:15:04;;;;;;;6.45;4.03;;;;;;;36.48;19.78;99469.06;5093903;28;20052;-63
2021/06/26 11:17:38;;;;;;;9.80;4.55;;;;;;;36.53;20.29;99465.41;5104727;27;20066;-68
2021/06/26 11:20:09;;;;;;;7.25;4.10;;;;;;;36.42;20.18;99454.41;5096204;28;20114;-64
2021/06/26 11:22:35;;;;;;;14.10;4.55;;;;;;;36.46;20.48;99447.09;5105306;28;20134;-61
2021/06/26 11:25:01;;;;;;;8.98;4.25;;;;;;;36.44;20.31;99452.16;5093337;28;20032;-62
2021/06/26 11:27:27;;;;;;;6.18;4.78;;;;;;;36.31;20.57;99441.78;5103331;28;20035;-61
2021/06/26 11:30:01;;;;;;;8.95;4.75;;;;;;;36.38;20.47;99463.69;5098382;28;20412;-63
2021/06/26 11:32:29;;;;;;;7.07;4.07;;;;;;;36.21;20.41;99453.94;5095763;28;20051;-63